Wakaba and Kareha support board

Num Title Posts Last post File size
1: Xee, part 2 629 2017-06-15 05:11 451 kb
2: Why hasn't this board been updated to 3.1.4? 1 2017-05-31 15:27 5 kb
3: The Unarchiver, part 2 484 2017-05-30 02:55 337 kb
4: The Unarchiver: An abandon project? 2 2017-05-14 00:35 5 kb
5: Wakaba/Kareha patches 107 2017-05-11 21:47 85 kb
6: MilkSnake 52 2017-03-18 00:35 37 kb
7: The Wakaba and Kareha support thread, part 3 530 2017-03-15 09:33 366 kb
8: Rotating banners 5 2017-03-13 01:52 8 kb
9: Translations in other languages 5 2017-03-03 18:48 6 kb
10: drop 2 2017-06-21 17:47 5 kb
11: Nicht einstellbar 1 2017-02-22 00:48 5 kb
12: Mac OS X screen savers 382 2017-02-21 19:36 247 kb
13: 500 Internal Server Error 416 2017-02-06 15:10 295 kb
14: How to make wakaba running in cgi-bin and other directories 5 2017-01-17 02:38 7 kb
15: The Archive Browser 170 2016-09-01 14:27 112 kb
16: WaveFlower IOS Support 2 2016-08-26 10:21 6 kb
17: The Wakaba/Kareha patches thread 1 2016-08-09 01:43 5 kb
18: Xee Support Thread 387 2016-08-04 21:28 288 kb
19: Sparkle vulnerability for auto-updating 12 2016-07-04 15:01 9 kb
20: Archives.app 37 2016-05-20 22:31 24 kb
21: Mac OS X widgets 92 2016-04-08 20:08 60 kb
22: uploading images by URL 20 2016-03-18 20:22 16 kb
23: Can't unarchive files directly by double clicking. 2 2016-03-15 21:09 6 kb
24: 【Kareha】 Kareha sites out there? (permasaged) 30 2016-01-25 13:36 18 kb
25: This is a test with the Apple logo code (permasaged) 13 2015-12-16 20:55 11 kb
26: Easter eggs (permasaged) 16 2015-12-16 21:04 8 kb
27: Board closed for now (permasaged) 3 2015-10-13 18:49 6 kb
28: Welcome to the board. (permasaged) 18 2016-07-03 21:01 10 kb
29: Multiple images per post? (permasaged) 30 2016-03-19 01:35 21 kb
30: OS X Yosemite (10.10) isn't supported 2 2014-10-18 21:31 5 kb
31: 【Wakaba】 Admin tripcodes -ATTEMPT- 16 2014-04-25 16:00 14 kb
32: Translations 17 2014-03-28 22:27 10 kb
33: Image annotation script 108 2014-03-03 08:34 78 kb
34: Capcode 13 2014-01-17 13:18 16 kb
35: Gameboy Advance experiments 15 2014-01-05 06:58 15 kb
36: APNG support 26 2013-12-29 03:55 24 kb
37: No QuickLook on Mavericks (closed) 2 2013-11-02 02:49 4 kb
38: Filter 4 2013-10-06 03:38 6 kb
39: plz 2 fix tripcodes (permasaged) 18 2013-09-29 03:54 13 kb
40: Who's ripping off the Wakaba logo? (permasaged) 62 2013-08-27 19:24 38 kb
41: Wakaba localization (permasaged) 5 2013-08-17 23:29 7 kb
42: holding posts for moderation (permasaged) 7 2013-07-18 06:19 9 kb
43: The Illusory Land of Gensokyo 3 2013-06-22 10:42 6 kb
44: Swear 151 2013-03-05 21:16 98 kb
45: The Society for the Study of Modern Image Board Culture 7 2016-01-25 13:28 8 kb
46: html tags not filtered (permasaged) 23 2013-01-22 20:21 15 kb
47: Multiple Boards 45 2013-01-21 16:03 32 kb
48: No Thumbnail 66 2012-11-05 19:19 50 kb
49: cant install this 2 2012-11-18 23:14 6 kb
50: Multiple images per post ??? 1 2012-10-22 00:31 5 kb
51: various ^H hacks (permasaged) 30 2013-10-19 23:17 19 kb
52: Oops. 6 2012-09-24 01:44 8 kb
53: Good hosts for wakaba / Kareha / Notes 11 2012-09-13 15:02 15 kb
54: Animate oekaki? (closed) 7 2012-08-27 09:28 6 kb
55: Hope to support Chinese 2 2012-08-25 23:22 5 kb
56: The Legendary Next Update (closed) 365 2012-08-16 09:47 321 kb
57: 【Kareha】 Comma Thread Syntax? (closed) 26 2012-08-16 09:43 21 kb
58: Wakaba Documentation 10 2013-07-22 06:32 10 kb
59: Testers appreciated (permasaged) 16 2012-06-28 02:07 15 kb
60: Transparent thumbnail (closed) 6 2012-05-28 08:27 6 kb
61: Getting 403 errors for .pl files,running on windows (permasaged) 43 2012-05-24 09:55 35 kb
62: Wakaba design choice query (permasaged) 3 2012-04-23 22:16 6 kb
63: Wakaba & Kareha 3.0.0 349 2012-04-06 12:57 257 kb
64: Spanish Translations 1 2012-03-21 22:55 5 kb
65: md5 ban (closed) 3 2012-03-20 09:58 4 kb
66: File Type Not Supported 18 2012-02-11 11:59 14 kb
67: The Unarchiver (closed) 1000 2011-11-25 20:06 711 kb
68: Kareha bans and nginx 11 2011-11-21 18:57 11 kb
69: embedding youtube/etc? 25 2011-10-16 01:08 24 kb
70: Wakaba and dollchan extension 2 2011-10-01 04:09 5 kb
71: Commercial application of wakaba 2 2011-09-29 04:18 6 kb
72: Kareha 3.1.0 46 2011-09-03 14:08 34 kb
73: "XML Parsing Error: not well-formed"? 31 2011-07-06 17:31 19 kb
74: Tripcode method? (permasaged) 47 2015-01-19 00:32 33 kb
75: Integration of several boards into one (permasaged) 9 2011-06-02 06:34 10 kb
76: Wakaba/Kareha on Dreamhost 71 2011-04-26 23:33 53 kb
77: Another "things from 4chan" (permasaged) 64 2012-04-16 04:02 47 kb
78: Spoiler tags? 30 2011-04-02 17:07 22 kb
79: wakaba oekaki animation and resume drawing support 3 2011-03-21 01:46 6 kb
80: Users that speak Spanish? 22 2011-03-13 03:09 21 kb
81: Spanish Support? 12 2011-03-12 23:05 12 kb
82: What about stickies? (permasaged) 38 2011-08-15 11:24 29 kb
83: I need to heavily modify Kareha... YOU WILL BE PAID 9 2011-02-13 14:49 8 kb
84: PerlHP 20 2011-04-24 01:47 18 kb
85: The Wakaba and Kareha support thread, part 2 (closed) 1000 2011-01-07 15:56 674 kb
86: Posting problems 16 2010-09-21 02:13 16 kb
87: Adding a whitelist for URLs on top of the spam blacklist? 6 2010-08-16 12:43 9 kb
88: using Wakaba or Kareha instead of a message forum. (permasaged) 9 2013-11-02 18:06 12 kb
89: Main Page Forbidden Error 12 2010-06-08 07:53 11 kb
90: WakabaMark 70 2012-01-31 23:11 47 kb
91: Just trying to make sense of it all 95 2010-02-12 17:43 79 kb
92: "USER WAS BANNED FOR THIS POST" mark (permasaged) 35 2010-01-04 23:55 27 kb
93: KML viewer 8 2009-12-22 09:35 10 kb
94: Wakaba ban system 33 2009-11-09 17:03 28 kb
95: Wilt, a compression algorithm 4 2009-08-30 09:20 8 kb
96: The Unarchiver 2.0 testing thread (closed) 92 2009-08-22 16:59 71 kb
97: Xee (closed) 1000 2009-07-21 21:20 770 kb
98: Web games 8 2009-07-15 04:17 9 kb
99: Wakaba vs Kareha 24 2009-06-13 07:32 21 kb
100: CAN WE JUST HAVE STICKIES AND BE DONE WITH THIS SHIT!? (permasaged) 13 2009-05-28 03:48 12 kb
101: Mass image upload / Reply? 4 2009-04-28 06:19 7 kb
102: Add thumb image to management panel instead of 'src/123456789.jpg' 17 2009-04-10 16:10 14 kb
103: The Desktop 85 2009-01-12 06:00 79 kb
104: Is there any way to create consecutive post numbers on kareha? (permasaged) 7 2009-01-06 12:43 9 kb
105: Error: Management password incorrect. (permasaged) 12 2009-01-05 16:29 10 kb
106: Kareha mutations (permasaged) 45 2009-01-04 20:25 30 kb
107: Spam-Filters blocking 12 2008-12-12 04:23 13 kb
108: can i translate perl to php? 24 2008-12-18 17:58 29 kb
109: No user delete. 11 2008-12-11 06:21 13 kb
110: Link format idea. (wakabamark) 5 2008-11-02 22:56 9 kb
111: Upgrading from Kusaba to Wakaba 5 2008-10-09 03:30 6 kb
112: Problem with Multiple Boards and Refresh 21 2008-09-25 09:42 17 kb
113: Side Menu F5 problems. (permasaged) 4 2008-09-24 14:28 7 kb
114: Documentation wiki 7 2008-08-24 05:53 10 kb
115: Porn problems 8 2008-08-22 14:00 9 kb
116: Features 36 2008-08-05 16:00 26 kb
117: Speed! 5 2008-08-07 07:17 10 kb
118: Random discovered information 8 2008-07-09 22:13 10 kb
119: which is best for beginners 6 2008-07-04 22:02 10 kb
120: Blue moon template 25 2008-06-08 21:04 13 kb
121: Crazy ideas 43 2008-04-16 18:40 47 kb
122: Wakaba and Kareha link buttons? 26 2008-04-16 18:40 17 kb
123: Setting up multiple sections? 20 2008-03-07 07:05 18 kb
124: Help setting up a Ban screen 9 2008-01-25 03:07 12 kb
125: Wakaba update status? 4 2007-11-29 18:39 7 kb
126: DNS trouble 3 2007-11-23 15:50 6 kb
127: noob guide needed 9 2007-11-29 08:01 11 kb
128: Thumbnail spoiler/censoring? 4 2007-11-10 14:59 7 kb
129: Free hosts? 2 2007-11-08 16:56 5 kb
130: Critical SQL problem! 13 2007-11-05 20:27 13 kb
131: Wakaba or Kareha 22 2007-10-23 17:31 21 kb
132: date backwards? 14 2007-10-23 21:49 12 kb
133: The Wakaba and Kareha support thread (closed) 1000 2007-10-11 07:01 696 kb
134: Kareha Integration into Joomla CMS ? 8 2007-09-17 09:29 8 kb
135: Buffer Overflow 7 2007-08-27 21:24 10 kb
136: expanding textarea and opera 9 2007-08-25 14:05 9 kb
137: Server requirements and other questions 7 2007-07-12 17:30 9 kb
138: Backwards with unicode fix? 19 2007-06-23 06:03 15 kb
139: Admin post form 3 2007-06-02 22:55 8 kb
140: Wakaba - broken repair_database() 8 2007-05-05 17:13 10 kb
141: Kareha 2.0.0 (closed) 34 2007-05-05 12:47 31 kb
142: Wakaba / Kareha internal search engine? 5 2007-05-05 11:36 7 kb
143: Wrong Vericode 15 2007-04-04 20:28 16 kb
144: .pl doesn't work for me 4 2007-03-21 18:36 7 kb
145: configuring the clock? 13 2007-03-19 05:55 12 kb
146: OpenID 20 2007-03-08 01:18 17 kb
147: mucking with wakaba 14 2007-02-21 02:41 13 kb
148: I made a thing 4 2007-02-16 21:27 6 kb
149: Logic behind "sage" in URL field and EMAIL_ID 19 2007-02-14 11:46 21 kb
150: Link field suggestion 15 2007-02-06 01:47 14 kb
151: request sample oekaki config 9 2007-03-09 08:22 10 kb
152: Preference for Opening File types (permasaged) 2 2006-11-30 04:42 5 kb
153: Heavily Modified Tiddly Wiki? 6 2006-11-11 21:19 8 kb
154: Rescue of ShiiChan 6 2006-10-29 00:58 7 kb
155: Permasaging in Wakaba 2 2006-10-25 13:49 5 kb
156: License of wakaba 4 2006-10-20 03:43 6 kb
157: Spambot, how to stop without captcha? 10 2006-10-02 18:39 13 kb
158: Looking to Switch to Wakaba 9 2006-09-15 14:18 9 kb
159: Another thread about stickies.. 3 2006-09-12 22:26 6 kb
160: Horizontal Lines after Thread Deletion? 4 2006-09-01 00:43 7 kb
161: how to setup load balancing. aka load pics from another server 11 2007-03-12 19:25 12 kb
162: Oekaki error 4 2006-08-21 20:33 6 kb
163: Administration Trouble. 6 2006-08-17 15:33 7 kb
164: Race condition? 4 2006-08-02 09:43 7 kb
165: max_lines_shown not working. 3 2006-08-01 16:20 7 kb
166: Google Code 3 2007-01-05 04:18 6 kb
167: Kareha post browsing 5 2006-07-18 18:49 8 kb
168: How do I... (things from 4chan) (permasaged) 110 2016-03-24 05:23 111 kb
169: Kareha needs some sort of search post function 6 2006-06-15 20:40 7 kb
170: Just got hit by a spam bot 18 2006-05-15 20:25 14 kb
171: Total fuckup, part THE THIRD! 3 2006-05-12 01:56 6 kb
172: Absolute post numbering in Kareha 4 2006-05-05 00:25 7 kb
173: Require registrations (Wakaba) 13 2006-04-25 07:35 13 kb
174: Doujin script 4 2006-04-25 07:36 7 kb
175: I am a fucking n00b 7 2006-04-13 06:07 7 kb
176: [Kareha] Ban only posters by IP? 14 2006-04-02 12:30 15 kb
177: stickies 4 2006-04-01 05:05 6 kb
178: Banning IP ranges? 12 2006-03-22 10:11 10 kb
179: New page design 9 2006-03-22 10:11 10 kb
180: Cookies not sticking? 11 2006-03-22 10:11 9 kb
181: Permition problems.. 5 2006-03-09 21:50 7 kb
182: No Image message. 3 2006-03-09 06:00 6 kb
183: Kareha problem 31 2006-03-07 22:34 23 kb
184: Can't set up Mona font 10 2006-03-07 00:52 10 kb
185: proxy check? 2 2006-03-05 19:27 5 kb
186: Security update 9 2006-03-04 02:57 10 kb
187: Help me, please 5 2006-03-02 06:18 7 kb
188: How do I delete posts as an admin in kareha? 3 2006-05-12 11:00 6 kb
189: Order of threads in Wakaba 3 2006-02-26 01:52 6 kb
190: MySQL example. 4 2006-02-25 04:14 6 kb
191: Kareha Newbie Can't Get Images in Posts 4 2006-02-24 21:07 7 kb
192: global post numbering (Kareha) 6 2006-02-21 08:16 7 kb
193: super-compact kareha (permasaged) 45 2016-12-08 06:12 93 kb
194: OK... really... what the heck is wrong now? 5 2006-02-18 17:09 6 kb
195: Deleted posts & post counts (ugh) 6 2006-02-18 16:23 10 kb
196: Internal character conversion? 2 2006-02-13 00:12 5 kb
197: Kareha suggestion 3 2006-02-15 12:06 6 kb
198: What determines when a thread gets deleted? 4 2006-02-07 00:23 7 kb
199: Template issues with Kareha in Futaba mode 7 2006-02-12 19:21 10 kb
200: A problem with the administration 2 2006-01-27 01:43 6 kb
201: Wakaba.pl source shows up 6 2006-01-13 15:37 8 kb
202: Where do I even start? 11 2006-01-12 00:53 13 kb
203: me again... few basics questions on Kareha 12 2006-01-07 16:10 13 kb
204: Convert easily from Futalallaby to Wakaba 5 2006-01-06 00:06 7 kb
205: Kareha in Perl 5.005 2 2006-01-05 23:10 7 kb
206: proxy check 6 2005-12-20 13:26 8 kb
207: No file? 4 2005-12-18 22:06 6 kb
208: Pimping software 6 2005-12-18 14:58 7 kb
209: Mozilla YSOD on test thread 7 2006-09-03 20:26 8 kb
210: Google Base 2 2005-11-21 14:07 5 kb
211: If you can see this, post ITT 6 2005-11-21 08:10 8 kb
212: need a script to automatically syndicate wakaba 6 2005-11-06 07:18 8 kb
213: what to do with a security freaked server? 7 2005-10-17 04:55 11 kb
214: What to do if your Server doesnt support ImageMagick 4 2005-10-14 13:59 7 kb
215: 【Kareha】 2ch browsers? 13 2009-05-09 20:04 12 kb
216: Feature Request: Archive 11 2015-04-11 02:15 11 kb
217: Script changing permissions? 3 2005-10-06 23:23 6 kb
218: Use GDlib v 2.0 to thumbnail 10 2005-10-05 22:17 11 kb
219: Metadata, categorical filtering, and multiple boards 10 2005-10-05 21:53 13 kb
220: Oekaki problem 10 2005-10-05 20:33 10 kb
221: Help the n00b :$ 12 2005-10-02 00:20 12 kb
222: Free server? 5 2005-09-27 15:51 7 kb
223: 【Kareha】 New Refresh Bug? 6 2005-09-27 15:09 9 kb
224: Max number of lines enforced in Kareha? 8 2005-09-25 10:37 10 kb
225: Random questions 24 2005-09-24 13:04 28 kb
226: help!! 6 2005-09-22 21:47 8 kb
227: Proxy, anti-captcha, archive, and other things... 11 2005-09-12 08:02 12 kb
228: byte to kilobyte 14 2005-09-08 06:30 12 kb
229: problem with nchan.tk 4 2005-09-04 14:16 7 kb
230: Non-image file posting 19 2005-09-03 13:39 16 kb
231: Weak captcha 15 2005-08-31 23:56 19 kb
232: Kareha: Sticky threads? 6 2005-08-28 03:41 8 kb
233: 【Kareha】 Closing Threads 24 2005-08-27 20:53 23 kb
234: Internal Server Error 11 2005-08-27 03:27 12 kb
235: "Either this image is too big.." 4 2005-08-25 19:38 7 kb
236: Scripts create files that have permission 600 8 2005-08-20 06:29 8 kb
237: CGI::Carp ? 12 2005-08-09 17:05 12 kb
238: Oekaki error 12 2005-08-05 15:57 11 kb
239: Looking for a webhost 20 2005-07-30 20:53 21 kb
240: Threads not showing up at first (Wakaba) 25 2005-07-11 18:37 19 kb
241: FORCED_ANON stuff 3 2005-07-11 17:47 6 kb
242: midi-file picture 1 2005-07-09 06:43 5 kb
243: help :/ 19 2005-06-29 08:45 15 kb
244: Wakaba-tan Frontpage Image 5 2005-06-25 01:39 7 kb
245: spaces in filenames don't get translated to "_" 8 2005-06-02 21:25 10 kb
246: AOL DQN 3 2005-05-31 06:16 6 kb
247: paypal buttons 19 2005-05-17 18:22 17 kb
248: A small request. 6 2005-05-05 04:36 8 kb
249: 'method not allowed' 4 2005-05-01 20:00 6 kb
250: 【Wakaba】 10 2005-04-12 04:25 10 kb
251: ID codes 22 2006-01-10 05:09 22 kb
252: Wakaba 2.1.0 48 2005-03-29 19:31 34 kb
253: 【Kareha】 No title entered 8 2005-03-27 06:34 9 kb
254: 【Kareha】 admin posting 9 2005-03-26 07:43 10 kb
255: Little Request 3 2005-03-24 09:12 6 kb
256: I send you this file in order to have your advice. 8 2005-03-20 19:11 9 kb
257: 【Kareha】 Pages? 2 2005-03-18 14:48 6 kb
258: 【Kareha】 Automatic l50? 9 2005-03-18 14:47 10 kb
259: making kareha use application/xhtml+xml instead of text/html 21 2005-03-16 19:21 20 kb
260: New feature on Futaba 5 2005-03-14 21:29 7 kb
261: New wiki 9 2005-03-12 21:05 9 kb
262: Wakaba - pinned threads 10 2006-10-29 03:47 12 kb
263: Puny suggestions 6 2005-02-28 11:32 8 kb
264: question about the documentation wiki 5 2005-02-22 22:45 7 kb
265: Thumbnails 7 2005-02-20 20:22 9 kb
266: New version! New version! New version! 39 2005-02-19 22:03 33 kb
267: need help with zero 10 2005-02-16 04:27 10 kb
268: [Wakaba] I am unable to activate the .js file 10 2005-02-15 16:45 12 kb
269: Experimental Wakaba version 3 2005-02-03 04:59 5 kb
270: kareha's rss feeds are not valid rss 7 2005-01-30 17:11 10 kb
271: ImageMagick alternative 4 2005-01-29 22:07 8 kb
272: 【Wakaba】 >> 3 2005-01-26 02:32 6 kb
273: No data 7 2005-01-26 00:52 8 kb
274: Waha sends you the translations to Spanish 14 2005-01-21 22:18 13 kb
275: Perl restrictions hindering installation 19 2005-01-20 20:46 17 kb
276: Search engines now using the rel=nofollow attribute 2 2005-01-19 19:45 5 kb
277: futallaby modificatons? 21 2005-01-18 01:36 21 kb
278: Better E-mail field parsing 46 2005-01-17 06:57 35 kb
279: Wakaba-tan's face overshadowed by linklist 4 2005-01-15 01:07 6 kb
280: Version numbers? 4 2005-01-10 00:16 6 kb
281: New Kareha release 6 2005-01-07 05:21 9 kb
282: Dereferrer Support? 5 2005-01-07 00:42 7 kb
283: Making smaller HTML files? 8 2004-12-27 19:58 12 kb
284: Internal Server Error Woes 22 2004-12-27 17:03 19 kb
285: Wakamark 31 2004-12-20 05:53 24 kb
286: 500 Internal Server Error 100webspace.com 5 2004-12-16 16:43 8 kb
287: SITE MOVE 5 2004-12-16 16:41 7 kb
288: Perl Error 6 2004-12-14 04:16 8 kb
289: captcha problem 6 2004-12-13 04:07 8 kb
290: The long-awaited new releases 7 2004-12-11 05:36 13 kb
291: Help me, I'm useless. 7 2004-12-10 21:10 8 kb
292: Global links? 4 2004-12-10 00:41 7 kb
293: general Moderator 5 2004-12-09 13:26 8 kb
294: Documentation wiki 2 2004-12-08 23:41 5 kb
295: Two questions 6 2004-12-05 21:25 8 kb
296: getting mysql to work with wakaba 11 2004-11-28 12:23 11 kb
297: Christmas cleaning Wakaba release 4 2004-11-24 16:46 8 kb
298: Request for assistance 7 2004-11-22 01:28 10 kb
299: Wakaba beta version 3 2004-11-19 18:45 7 kb
300: Minor bugfix release 1 2004-11-18 20:00 5 kb
301: And a new Wakaba, too 15 2004-11-17 17:05 15 kb
302: The moment you have all been waiting for 8 2004-11-14 03:30 12 kb
303: wakabazero dies 14 2005-10-27 03:30 16 kb
304: /sup/ is now under a BLANKET OF SNOW 11 2004-11-12 03:31 9 kb
305: Reverse translation? 5 2004-11-07 09:19 7 kb
306: lol internet 2 2014-11-21 17:48 5 kb
307: /sup/ is now under a BLANKET OF FEAR 8 2004-11-06 02:57 9 kb
308: The Test Thread (permasaged) 401 2017-05-25 06:22 699 kb
309: New Kareha CSS 9 2004-11-04 01:51 9 kb
310: Why is Wakaba in Perl? 3 2004-10-27 13:47 6 kb
311: Exodus release 1 4 2004-10-26 13:50 7 kb
312: IIchan will be forever immortal. 1 2004-10-23 08:33 4 kb
313: Vericode 24 2004-10-16 02:00 17 kb
314: New Kareha release 2 2015-09-28 08:10 5 kb